Etusivu
METAR-TAF:

METAR-TAF

Lentoasemat :

Helsinki, Suomi

Helsinki-Vantaan lentoasema

Leveyspiiri: 60-19N, Pituuspiiri: 024-58E, korkeus merenpinnasta: 51 m

Tämänhetkinen sää

Tämä raportti tehtiin 23 minuuttia sitten, kello 23.50 UTC
Tuuli 2 kn eri suunnista
Lämpötila 8°C
Kosteus 81%
Ilmanpaine 1012 hPa
Näkyvyys 10 km tai enemmän
ei pilviä alle 1500 m:ssä eikä cumulonimbus-pilviä

METAR: EFHK 282350Z VRB02KT CAVOK 08/05 Q1012 NOSIG

Aika: 03:13 (00:13 UTC)

Sääennuste

Tämä raportti tehtiin 47 minuuttia sitten, kello 23.26 UTC
Ennuste voimassa 29. päivästä klo 00 UTC - 29. päivään klo 24 UTC
Tuuli 4 kn pohjoisen/luoteesta
Näkyvyys 10 km tai enemmän
ei pilviä alle 1500 m:ssä eikä cumulonimbus-pilviä
Tulossa
29. päivästä klo 06 UTC - 29. päivään klo 09 UTC
Tuuli 11 kn idästä

TAF: EFHK 282326Z 2900/2924 33004KT CAVOK BECMG 2906/2909 10011KT

Säähavainnot ja -ennusteet yli 4000 lentoasemalta (METAR- ja TAF-raportit).

Käytössä olevat sääasemat on merkitty karttaan keltaisilla ja punaisilla pisteillä.

Aseta hiiri pisteen päälle nähdäksesi sääaseman nimen.

Klikkaa sitten nähdäksesi säähavainnot ja -ennusteet.

Kartan vaihtaminen: klikkaa mustalla rastilla varustettuja vihreitä pisteitä, niin voit zoomata sisään; viivalla varustettua vihreää pistettä, niin voit zoomata ulos tai vihreitä nuolia, niin pääset viereisille kartoille.


METAR-TAF: